Time;durP1;ratioP1;P1;durP2;ratioP2;P2;SDS_P1;SDS_P2;PMS_P1;PMS_P2;Temp;Humidity;BMP_temperature;BMP_pressure;BME280_temperature;BME280_humidity;BME280_pressure;Samples;Min_cycle;Max_cycle;Signal;HPM_P1;HPM_P2
2022/07/09 00:03:08;;;;;;;10.48;4.40;;;;;;;16.38;100.00;101813.75;8319107;28;20044;-63
2022/07/09 00:07:08;;;;;;;10.80;4.68;;;;;;;16.30;100.00;101805.44;8319560;28;20038;-63
2022/07/09 00:11:09;;;;;;;11.85;4.47;;;;;;;16.24;100.00;101811.47;8316991;28;20098;-63
2022/07/09 00:15:10;;;;;;;6.85;3.80;;;;;;;16.40;100.00;101809.00;8307458;28;20041;-63
2022/07/09 00:19:10;;;;;;;9.95;3.75;;;;;;;16.30;100.00;101809.03;8324875;28;20075;-63
2022/07/09 00:23:10;;;;;;;5.65;4.22;;;;;;;16.41;100.00;101802.53;8325633;28;20545;-63
2022/07/09 00:27:11;;;;;;;9.03;4.07;;;;;;;16.43;100.00;101805.97;8324779;28;20029;-63
2022/07/09 00:31:11;;;;;;;9.00;4.80;;;;;;;16.23;100.00;101798.84;8322486;28;20272;-62
2022/07/09 00:35:11;;;;;;;8.82;5.40;;;;;;;16.27;100.00;101794.78;8324263;28;20037;-62
2022/07/09 00:39:12;;;;;;;18.27;6.40;;;;;;;16.43;100.00;101795.03;8325618;28;20037;-62
2022/07/09 00:43:18;;;;;;;16.42;6.43;;;;;;;16.37;100.00;101785.59;8324428;28;20029;-62
2022/07/09 00:47:18;;;;;;;10.65;6.43;;;;;;;16.28;100.00;101785.63;8324632;28;20037;-62
2022/07/09 00:51:19;;;;;;;12.30;7.35;;;;;;;16.40;100.00;101787.16;8322375;28;20044;-62
2022/07/09 00:55:20;;;;;;;11.27;6.18;;;;;;;16.38;100.00;101781.00;8323990;28;20037;-62
2022/07/09 00:59:22;;;;;;;8.82;6.18;;;;;;;16.28;100.00;101775.53;8324773;28;20048;-62
2022/07/09 01:03:22;;;;;;;8.70;6.65;;;;;;;16.27;100.00;101778.41;8312861;28;20522;-62
2022/07/09 01:07:23;;;;;;;8.23;5.25;;;;;;;16.25;100.00;101780.47;8323100;28;20456;-62
2022/07/09 01:11:23;;;;;;;11.13;4.25;;;;;;;16.24;100.00;101779.59;8323329;28;20506;-62
2022/07/09 01:15:24;;;;;;;20.25;5.30;;;;;;;15.80;100.00;101780.22;8323263;28;20512;-62
2022/07/09 01:19:24;;;;;;;6.00;4.90;;;;;;;15.52;100.00;101776.44;8322956;28;20076;-62
2022/07/09 01:23:26;;;;;;;9.43;5.32;;;;;;;15.46;100.00;101766.09;8323709;28;20148;-62
2022/07/09 01:27:26;;;;;;;8.80;4.78;;;;;;;15.63;100.00;101776.31;8323357;28;20116;-62
2022/07/09 01:31:27;;;;;;;7.88;4.57;;;;;;;15.77;100.00;101764.97;8323068;28;20041;-62
2022/07/09 01:35:27;;;;;;;12.60;5.15;;;;;;;15.66;100.00;101756.94;8353523;28;20037;-62
2022/07/09 01:39:28;;;;;;;5.22;4.55;;;;;;;15.47;100.00;101751.47;8358119;28;20033;-62
2022/07/09 01:43:28;;;;;;;11.33;5.37;;;;;;;15.34;100.00;101755.47;8359043;28;20414;-62
2022/07/09 01:47:29;;;;;;;8.25;5.93;;;;;;;15.49;100.00;101749.47;8359295;28;20275;-62
2022/07/09 01:51:30;;;;;;;10.07;6.03;;;;;;;15.49;100.00;101746.75;8355795;28;20139;-62
2022/07/09 01:55:30;;;;;;;6.35;4.95;;;;;;;15.39;100.00;101754.06;8342901;28;20375;-62
2022/07/09 01:59:30;;;;;;;9.70;5.45;;;;;;;15.30;100.00;101752.13;8359369;28;20036;-62
2022/07/09 02:03:31;;;;;;;10.20;5.73;;;;;;;15.41;100.00;101741.13;8341136;28;20086;-62
2022/07/09 02:07:32;;;;;;;14.68;6.53;;;;;;;15.68;100.00;101737.72;8350824;28;20321;-62
2022/07/09 02:11:32;;;;;;;7.78;5.30;;;;;;;15.58;100.00;101737.69;8358677;28;20048;-62
2022/07/09 02:15:33;;;;;;;11.25;5.68;;;;;;;15.57;100.00;101736.00;8358759;28;20029;-62
2022/07/09 02:19:33;;;;;;;9.55;5.68;;;;;;;15.73;100.00;101729.09;8359077;28;20033;-62
2022/07/09 02:23:34;;;;;;;8.80;5.75;;;;;;;15.34;100.00;101729.03;8358819;28;20032;-62
2022/07/09 02:27:34;;;;;;;13.18;7.18;;;;;;;15.11;100.00;101733.03;8358515;28;20039;-63
2022/07/09 02:31:35;;;;;;;6.55;5.63;;;;;;;15.32;100.00;101730.19;8358429;28;20057;-63
2022/07/09 02:35:35;;;;;;;8.20;6.20;;;;;;;15.39;100.00;101721.34;8356597;28;20033;-63
2022/07/09 02:39:35;;;;;;;7.53;5.85;;;;;;;14.90;100.00;101728.66;8357705;28;20330;-63
2022/07/09 02:43:36;;;;;;;11.23;7.50;;;;;;;14.96;100.00;101718.09;8342414;28;20166;-63
2022/07/09 02:47:36;;;;;;;15.32;7.38;;;;;;;15.20;100.00;101724.03;8352520;28;20044;-63
2022/07/09 02:51:37;;;;;;;12.75;7.45;;;;;;;15.01;100.00;101715.78;8357953;28;20048;-63
2022/07/09 02:55:37;;;;;;;9.98;7.93;;;;;;;15.16;100.00;101725.28;8350363;28;20040;-63
2022/07/09 02:59:38;;;;;;;10.25;6.93;;;;;;;15.38;100.00;101719.63;8370608;28;20082;-63
2022/07/09 03:03:38;;;;;;;14.73;8.25;;;;;;;15.37;100.00;101717.06;8357395;28;20039;-63
2022/07/09 03:07:39;;;;;;;8.88;7.93;;;;;;;15.48;100.00;101720.50;8357246;28;20478;-63
2022/07/09 03:11:39;;;;;;;13.02;9.23;;;;;;;15.60;100.00;101721.19;8357351;28;20087;-63
2022/07/09 03:15:39;;;;;;;12.25;7.28;;;;;;;15.57;100.00;101714.19;8357284;28;20079;-63
2022/07/09 03:19:40;;;;;;;12.40;7.93;;;;;;;15.53;100.00;101715.44;8357562;28;20041;-63
2022/07/09 03:23:40;;;;;;;8.32;6.80;;;;;;;15.76;100.00;101709.72;8357042;28;20033;-63
2022/07/09 03:27:40;;;;;;;11.73;6.82;;;;;;;16.02;100.00;101717.16;8356929;28;20036;-63
2022/07/09 03:31:41;;;;;;;7.90;6.93;;;;;;;16.01;100.00;101714.56;8352496;28;20038;-63
2022/07/09 03:35:41;;;;;;;10.48;6.93;;;;;;;15.88;100.00;101716.72;8349864;28;20041;-63
2022/07/09 03:39:42;;;;;;;13.07;6.85;;;;;;;15.98;100.00;101717.59;8357369;28;20029;-63
2022/07/09 03:43:42;;;;;;;11.88;7.18;;;;;;;16.14;100.00;101704.19;8356493;28;20052;-63
2022/07/09 03:47:42;;;;;;;10.02;7.18;;;;;;;15.97;100.00;101705.81;8356606;28;20489;-63
2022/07/09 03:51:44;;;;;;;13.00;7.33;;;;;;;16.06;100.00;101714.97;8358923;28;20516;-63
2022/07/09 03:55:44;;;;;;;10.90;6.68;;;;;;;16.08;100.00;101712.97;8363316;28;20267;-63
2022/07/09 03:59:44;;;;;;;11.40;6.80;;;;;;;16.02;100.00;101702.66;8363527;28;20053;-63
2022/07/09 04:03:45;;;;;;;13.20;7.45;;;;;;;16.20;100.00;101715.41;8362652;28;20029;-63
2022/07/09 04:07:45;;;;;;;10.30;5.88;;;;;;;16.39;100.00;101707.16;8362460;28;20045;-63
2022/07/09 04:11:46;;;;;;;9.38;6.47;;;;;;;16.05;100.00;101705.94;8362929;28;20131;-63
2022/07/09 04:15:46;;;;;;;11.27;6.35;;;;;;;16.10;100.00;101710.97;8362847;28;20044;-63
2022/07/09 04:19:46;;;;;;;6.87;5.20;;;;;;;16.35;100.00;101715.78;8363045;28;20061;-63
2022/07/09 04:23:48;;;;;;;10.80;6.37;;;;;;;16.86;100.00;101716.16;8352976;28;20698;-63
2022/07/09 04:27:48;;;;;;;7.85;5.80;;;;;;;16.80;100.00;101712.16;8362007;28;20272;-63
2022/07/09 04:31:48;;;;;;;10.20;5.05;;;;;;;16.89;100.00;101722.19;8362382;28;20095;-63
2022/07/09 04:35:49;;;;;;;9.80;5.53;;;;;;;16.93;100.00;101722.75;8359954;28;20045;-63
2022/07/09 04:39:49;;;;;;;8.60;4.27;;;;;;;16.87;100.00;101724.19;8353783;28;20343;-63
2022/07/09 04:43:49;;;;;;;10.40;4.90;;;;;;;16.90;100.00;101725.78;8350299;28;20285;-63
2022/07/09 04:47:50;;;;;;;10.03;5.23;;;;;;;17.12;100.00;101733.56;8373281;28;20041;-63
2022/07/09 04:51:51;;;;;;;9.98;4.50;;;;;;;17.46;100.00;101726.44;8328474;28;20280;-63
2022/07/09 04:55:51;;;;;;;15.15;4.97;;;;;;;17.81;98.88;101729.16;8328687;28;20466;-63
2022/07/09 04:59:51;;;;;;;19.60;5.55;;;;;;;18.00;98.33;101725.41;8329015;28;20041;-63
2022/07/09 05:03:52;;;;;;;15.83;6.20;;;;;;;18.35;95.02;101726.19;8328049;28;20041;-63
2022/07/09 05:07:53;;;;;;;10.35;5.10;;;;;;;18.55;95.30;101727.72;8327956;28;20280;-63
2022/07/09 05:11:54;;;;;;;13.02;5.20;;;;;;;18.65;94.94;101727.59;8323171;28;20053;-63
2022/07/09 05:15:54;;;;;;;14.52;5.55;;;;;;;18.76;96.00;101730.88;8313667;28;20461;-63
2022/07/09 05:19:54;;;;;;;8.25;5.03;;;;;;;18.83;97.85;101721.00;8328162;28;20060;-63
2022/07/09 05:23:55;;;;;;;7.37;5.13;;;;;;;19.12;92.09;101713.22;8328247;28;20037;-63
2022/07/09 05:27:55;;;;;;;15.00;5.95;;;;;;;19.36;90.49;101712.47;8327566;28;20280;-63
2022/07/09 05:31:57;;;;;;;10.20;5.90;;;;;;;19.54;90.99;101731.56;8328029;28;20049;-63
2022/07/09 05:35:57;;;;;;;10.98;6.82;;;;;;;19.64;90.55;101724.84;8326524;28;20288;-63
2022/07/09 05:39:58;;;;;;;7.67;6.67;;;;;;;19.78;90.84;101729.69;8327429;28;20124;-63
2022/07/09 05:43:59;;;;;;;10.40;6.63;;;;;;;19.90;89.98;101731.06;8326874;28;20342;-63
2022/07/09 05:47:59;;;;;;;13.13;7.00;;;;;;;20.06;89.71;101730.22;8326744;28;20047;-63
2022/07/09 05:52:00;;;;;;;12.77;6.45;;;;;;;20.22;89.55;101724.72;8321758;28;20049;-63
2022/07/09 05:56:00;;;;;;;20.00;7.30;;;;;;;20.59;87.08;101730.50;8326174;28;20498;-63
2022/07/09 06:00:03;;;;;;;14.45;7.75;;;;;;;20.62;86.07;101725.47;8326265;28;20161;-63
2022/07/09 06:04:03;;;;;;;13.40;7.70;;;;;;;20.66;86.28;101731.50;8310513;28;20150;-63
2022/07/09 06:08:04;;;;;;;15.15;8.02;;;;;;;21.10;84.41;101727.22;8324958;28;20045;-63
2022/07/09 06:12:04;;;;;;;14.50;8.10;;;;;;;20.99;83.35;101722.13;8326109;28;20432;-63
2022/07/09 06:16:05;;;;;;;14.43;8.27;;;;;;;21.20;85.14;101730.63;8325195;28;20273;-63
2022/07/09 06:20:06;;;;;;;18.23;8.63;;;;;;;21.60;84.57;101730.38;8325830;28;20041;-63
2022/07/09 06:24:06;;;;;;;16.40;8.45;;;;;;;21.72;82.83;101726.16;8324374;28;20041;-63
2022/07/09 06:28:07;;;;;;;16.35;9.20;;;;;;;21.75;83.16;101723.09;8325386;28;20394;-63
2022/07/09 06:32:08;;;;;;;19.65;10.75;;;;;;;22.02;83.04;101733.50;8325737;28;20037;-63
2022/07/09 06:36:08;;;;;;;14.90;9.73;;;;;;;22.26;82.41;101722.28;8324970;28;20449;-63
2022/07/09 06:40:09;;;;;;;15.93;10.07;;;;;;;22.12;81.78;101728.63;8325029;28;20045;-63
2022/07/09 06:44:09;;;;;;;19.75;8.85;;;;;;;21.96;80.96;101725.97;8304005;28;20119;-63
2022/07/09 06:48:09;;;;;;;17.03;10.20;;;;;;;22.46;82.04;101717.94;8310257;28;20046;-63
2022/07/09 06:52:10;;;;;;;15.50;9.80;;;;;;;22.25;82.51;101717.81;8308838;28;20656;-63
2022/07/09 06:56:10;;;;;;;17.02;10.25;;;;;;;22.03;81.81;101710.44;8323287;28;20268;-63
2022/07/09 07:00:11;;;;;;;14.90;11.37;;;;;;;21.87;82.14;101718.88;8325118;28;20112;-63
2022/07/09 07:04:12;;;;;;;21.23;10.98;;;;;;;22.16;82.43;101713.44;8323306;28;20278;-63
2022/07/09 07:08:13;;;;;;;21.42;10.07;;;;;;;22.46;80.61;101715.19;8318902;28;20033;-63
2022/07/09 07:12:14;;;;;;;22.92;9.80;;;;;;;22.97;79.24;101711.50;8324610;28;20064;-63
2022/07/09 07:16:14;;;;;;;14.65;8.90;;;;;;;23.12;79.61;101712.31;8323667;28;20038;-63
2022/07/09 07:20:17;;;;;;;13.17;8.97;;;;;;;22.97;77.09;101714.25;8316403;28;20037;-63
2022/07/09 07:24:17;;;;;;;15.88;7.80;;;;;;;23.29;76.11;101712.16;8319127;28;20296;-63
2022/07/09 07:28:18;;;;;;;16.25;6.40;;;;;;;23.59;73.83;101720.16;8329824;28;20557;-63
2022/07/09 07:32:18;;;;;;;9.20;5.82;;;;;;;23.29;74.30;101717.69;8322894;28;20045;-63
2022/07/09 07:36:19;;;;;;;16.43;6.27;;;;;;;22.80;75.23;101718.28;8315853;28;20490;-63
2022/07/09 07:40:19;;;;;;;9.90;5.47;;;;;;;23.33;74.19;101719.00;8326257;28;20108;-63
2022/07/09 07:44:20;;;;;;;12.93;5.60;;;;;;;23.01;73.98;101721.13;8328856;28;20037;-63
2022/07/09 07:48:21;;;;;;;8.55;4.70;;;;;;;23.46;73.36;101732.94;8318629;28;20640;-63
2022/07/09 07:52:21;;;;;;;9.68;4.32;;;;;;;23.56;72.27;101719.66;8324395;28;20472;-63
2022/07/09 07:56:22;;;;;;;8.85;3.22;;;;;;;23.87;72.43;101722.97;8324955;28;20399;-63
2022/07/09 08:00:22;;;;;;;4.20;2.95;;;;;;;23.57;70.69;101721.41;8316976;28;20061;-63
2022/07/09 08:04:23;;;;;;;6.57;3.42;;;;;;;23.48;72.15;101717.06;8311162;28;20072;-63
2022/07/09 08:08:23;;;;;;;10.05;2.92;;;;;;;24.09;72.25;101710.91;8325488;28;20533;-63
2022/07/09 08:12:24;;;;;;;6.68;3.05;;;;;;;24.30;69.05;101716.38;8333811;28;20518;-63
2022/07/09 08:16:24;;;;;;;3.80;2.33;;;;;;;23.95;68.87;101720.13;8323485;28;20033;-63
2022/07/09 08:20:24;;;;;;;5.73;2.40;;;;;;;24.54;67.41;101710.38;8320202;28;20387;-63
2022/07/09 08:24:26;;;;;;;3.83;2.07;;;;;;;24.44;69.23;101718.19;8311092;28;20041;-63
2022/07/09 08:28:27;;;;;;;5.70;1.50;;;;;;;24.52;67.43;101709.75;8315282;28;20275;-63
2022/07/09 08:32:28;;;;;;;4.55;1.70;;;;;;;25.19;67.66;101710.81;8312591;28;20071;-63
2022/07/09 08:36:29;;;;;;;3.72;1.42;;;;;;;25.58;64.95;101704.56;8310033;28;20030;-63
2022/07/09 08:40:30;;;;;;;10.25;2.03;;;;;;;25.55;68.68;101703.06;8315299;28;20048;-63
2022/07/09 08:44:35;;;;;;;2.95;1.40;;;;;;;25.47;64.88;101708.81;8314164;28;20413;-63
2022/07/09 08:48:45;;;;;;;7.05;2.10;;;;;;;25.95;62.82;101701.22;8310707;28;20128;-63
2022/07/09 08:52:45;;;;;;;5.68;1.42;;;;;;;25.60;66.63;101691.34;8318845;28;20053;-63
2022/07/09 08:56:46;;;;;;;7.47;1.23;;;;;;;25.43;64.00;101690.88;8307960;28;20103;-63
2022/07/09 09:00:49;;;;;;;1.17;0.70;;;;;;;25.10;63.24;101689.91;8309575;28;20090;-63
2022/07/09 09:04:49;;;;;;;3.30;1.10;;;;;;;24.70;63.74;101688.00;8301894;28;20046;-63
2022/07/09 09:08:54;;;;;;;3.03;1.27;;;;;;;25.07;62.54;101673.69;8304424;28;20057;-63
2022/07/09 09:12:56;;;;;;;1.63;1.00;;;;;;;25.73;63.10;101675.59;8295009;28;20041;-63
2022/07/09 09:17:12;;;;;;;2.35;1.00;;;;;;;26.45;60.57;101670.94;8305696;28;20033;-63
2022/07/09 09:21:14;;;;;;;3.10;1.02;;;;;;;26.75;60.56;101676.88;8319778;28;20704;-63
2022/07/09 09:25:17;;;;;;;1.90;0.60;;;;;;;26.49;59.86;101674.97;8321929;28;20095;-63
2022/07/09 09:29:17;;;;;;;4.23;1.10;;;;;;;27.23;58.21;101669.00;8319224;28;20045;-63
2022/07/09 09:33:18;;;;;;;5.05;1.00;;;;;;;27.20;57.44;101666.66;8318975;28;20116;-63
2022/07/09 09:37:28;;;;;;;3.15;0.60;;;;;;;27.45;58.10;101650.94;8318228;28;20187;-63
2022/07/09 09:41:29;;;;;;;5.38;0.95;;;;;;;27.05;56.66;101652.19;8315112;28;20417;-63
2022/07/09 09:45:30;;;;;;;3.05;1.40;;;;;;;26.53;59.12;101648.50;8320103;28;20038;-63
2022/07/09 09:49:30;;;;;;;15.02;2.17;;;;;;;26.27;59.15;101645.78;8306152;28;20038;-62
2022/07/09 09:53:31;;;;;;;4.93;1.00;;;;;;;27.30;58.33;101639.28;8320679;28;20519;-62
2022/07/09 09:57:32;;;;;;;21.13;2.05;;;;;;;27.58;58.33;101637.81;8305025;28;20521;-64
2022/07/09 10:01:32;;;;;;;8.57;1.25;;;;;;;27.04;58.59;101622.72;8312088;28;20410;-64
2022/07/09 10:05:34;;;;;;;2.03;0.60;;;;;;;27.23;57.87;101624.53;8322868;28;20487;-63
2022/07/09 10:09:34;;;;;;;1.25;0.73;;;;;;;27.26;56.76;101618.59;8324688;28;20044;-63
2022/07/09 10:13:38;;;;;;;1.38;0.80;;;;;;;27.98;54.67;101616.13;8325422;28;20482;-63
2022/07/09 10:17:41;;;;;;;4.57;0.70;;;;;;;28.67;55.10;101607.50;8317322;28;20048;-63
2022/07/09 10:21:42;;;;;;;4.50;1.17;;;;;;;30.04;51.36;101612.78;8314545;28;20500;-63
2022/07/09 10:25:46;;;;;;;1.92;0.50;;;;;;;31.57;47.74;101602.75;8321567;28;20095;-63
2022/07/09 10:30:02;;;;;;;;;;;;;;;30.33;49.39;101611.84;8323558;28;20521;-64
2022/07/09 10:34:08;;;;;;;2.85;0.63;;;;;;;29.43;52.54;101603.88;8318931;28;19924;-62
2022/07/09 10:38:09;;;;;;;2.72;0.90;;;;;;;30.59;52.56;101595.66;8309005;28;20061;-62
2022/07/09 10:42:18;;;;;;;2.80;0.80;;;;;;;31.04;48.86;101597.50;8313622;28;20124;-62
2022/07/09 10:46:19;;;;;;;3.30;0.95;;;;;;;29.92;51.94;101592.38;8321464;28;20048;-62
2022/07/09 10:50:20;;;;;;;5.88;0.90;;;;;;;28.88;51.82;101582.84;8310633;28;20494;-62
2022/07/09 10:54:20;;;;;;;2.38;1.00;;;;;;;29.40;50.90;101581.25;8318285;28;20033;-62
2022/07/09 10:58:23;;;;;;;1.60;0.57;;;;;;;28.64;54.35;101575.44;8320416;28;20037;-62
2022/07/09 11:02:23;;;;;;;2.28;0.80;;;;;;;27.91;53.87;101580.06;8314085;28;20382;-62
2022/07/09 11:06:24;;;;;;;1.35;0.65;;;;;;;27.55;54.31;101571.56;8314298;28;20053;-62
2022/07/09 11:10:26;;;;;;;2.42;0.70;;;;;;;28.21;54.43;101569.06;8314197;28;20049;-62
2022/07/09 11:14:29;;;;;;;0.50;0.50;;;;;;;29.98;52.55;101563.53;8318735;28;20053;-62
2022/07/09 11:18:30;;;;;;;1.05;0.60;;;;;;;29.72;51.52;101563.16;8318430;28;20037;-62
2022/07/09 11:22:32;;;;;;;4.90;0.68;;;;;;;29.13;53.50;101547.38;8314789;28;20093;-62
2022/07/09 11:26:32;;;;;;;1.63;0.77;;;;;;;28.50;52.80;101546.03;8319946;28;20422;-62
2022/07/09 11:30:33;;;;;;;2.60;1.10;;;;;;;28.96;52.93;101543.50;8320648;28;20109;-62
2022/07/09 11:34:33;;;;;;;6.40;1.40;;;;;;;29.21;51.99;101543.38;8319498;28;20760;-62
2022/07/09 11:38:34;;;;;;;2.17;1.10;;;;;;;29.28;54.62;101531.06;8319654;28;20037;-62
2022/07/09 11:42:41;;;;;;;3.17;1.37;;;;;;;30.77;51.11;101523.78;8319312;28;20033;-62
2022/07/09 11:46:42;;;;;;;4.60;0.98;;;;;;;30.84;50.01;101518.88;8317495;28;20087;-62
2022/07/09 11:50:44;;;;;;;1.87;1.10;;;;;;;30.13;51.67;101524.81;8319266;28;20069;-62
2022/07/09 11:55:05;;;;;;;5.18;1.85;;;;;;;28.44;53.66;101524.69;8321063;28;20284;-62
2022/07/09 11:59:06;;;;;;;3.42;1.70;;;;;;;27.36;56.15;101513.38;8320129;28;20034;-62
2022/07/09 12:03:06;;;;;;;3.38;1.48;;;;;;;27.17;57.69;101528.22;8314626;28;20037;-62
2022/07/09 12:07:10;;;;;;;2.33;1.48;;;;;;;27.20;58.62;101516.66;8317368;28;20038;-62
2022/07/09 12:11:10;;;;;;;4.25;2.08;;;;;;;26.51;57.81;101519.41;8314431;28;20589;-62
2022/07/09 12:15:10;;;;;;;6.87;1.80;;;;;;;26.20;61.02;101514.59;8318440;28;20099;-62
2022/07/09 12:19:11;;;;;;;3.42;1.75;;;;;;;26.27;59.90;101512.66;8326503;28;20640;-62
2022/07/09 12:23:11;;;;;;;6.75;1.73;;;;;;;26.18;60.77;101502.88;8326520;28;20425;-62
2022/07/09 12:27:12;;;;;;;7.30;1.75;;;;;;;26.43;60.33;101495.53;8324487;28;20456;-62
2022/07/09 12:31:12;;;;;;;6.68;1.60;;;;;;;27.32;59.30;101487.13;8311005;28;20266;-62
2022/07/09 12:35:13;;;;;;;5.47;2.23;;;;;;;27.95;57.71;101463.63;8317260;28;20102;-62
2022/07/09 12:39:13;;;;;;;5.28;1.58;;;;;;;27.68;59.75;101454.72;8309648;28;20484;-62
2022/07/09 12:43:13;;;;;;;15.43;2.17;;;;;;;28.50;58.67;101460.63;8319471;28;20308;-62
2022/07/09 12:47:14;;;;;;;3.43;1.63;;;;;;;28.08;56.53;101458.78;8315673;28;20152;-62
2022/07/09 12:51:14;;;;;;;2.78;1.88;;;;;;;27.35;56.36;101453.34;8317987;28;20327;-62
2022/07/09 12:55:16;;;;;;;2.67;1.60;;;;;;;26.76;58.08;101446.28;8307607;28;20087;-62
2022/07/09 12:59:17;;;;;;;3.05;1.83;;;;;;;26.06;59.89;101449.19;8310401;28;20280;-62
2022/07/09 13:03:17;;;;;;;2.35;1.77;;;;;;;25.89;60.75;101442.34;8319919;28;20041;-62
2022/07/09 13:07:18;;;;;;;3.83;2.33;;;;;;;25.65;61.23;101429.25;8308387;28;20048;-62
2022/07/09 13:11:18;;;;;;;6.68;2.10;;;;;;;25.49;62.17;101434.38;8313824;28;20296;-62
2022/07/09 13:15:21;;;;;;;8.47;2.70;;;;;;;25.23;62.52;101443.53;8319401;28;20095;-62
2022/07/09 13:19:21;;;;;;;6.82;2.72;;;;;;;24.62;70.15;101473.22;8316622;28;20787;-62
2022/07/09 13:23:21;;;;;;;8.55;3.88;;;;;;;22.74;82.25;101469.97;8323935;28;20390;-63
2022/07/09 13:27:22;;;;;;;7.07;4.83;;;;;;;21.87;88.84;101490.28;8319527;28;20449;-63
2022/07/09 13:31:23;;;;;;;13.48;8.38;;;;;;;21.30;96.88;101498.25;8316215;28;20283;-64
2022/07/09 13:35:24;;;;;;;21.60;14.20;;;;;;;20.96;100.00;101508.00;8321164;28;20053;-64
2022/07/09 13:39:24;;;;;;;25.35;17.95;;;;;;;20.57;100.00;101491.59;8324042;28;20445;-64
2022/07/09 13:43:26;;;;;;;24.50;18.83;;;;;;;20.54;100.00;101496.56;8322234;28;20122;-64
2022/07/09 13:47:27;;;;;;;35.03;21.15;;;;;;;20.59;100.00;101489.47;8323027;28;20277;-64
2022/07/09 13:51:27;;;;;;;30.63;22.63;;;;;;;20.74;100.00;101492.34;8318672;28;20049;-64
2022/07/09 13:55:28;;;;;;;28.88;25.40;;;;;;;21.23;100.00;101493.69;8322398;28;20099;-64
2022/07/09 13:59:28;;;;;;;28.80;23.08;;;;;;;21.86;100.00;101480.28;8325043;28;20049;-64
2022/07/09 14:03:29;;;;;;;27.73;23.38;;;;;;;22.70;97.88;101477.81;8319957;28;20037;-65
2022/07/09 14:07:30;;;;;;;29.25;22.52;;;;;;;23.09;96.13;101469.91;8321230;28;20124;-65
2022/07/09 14:11:30;;;;;;;31.02;23.65;;;;;;;23.64;96.06;101462.72;8344907;28;20128;-65
2022/07/09 14:15:33;;;;;;;26.80;21.98;;;;;;;24.29;93.20;101457.56;8321989;28;20037;-65
2022/07/09 14:19:34;;;;;;;26.17;21.20;;;;;;;24.35;88.33;101470.56;8322125;28;20033;-65
2022/07/09 14:23:34;;;;;;;23.77;19.58;;;;;;;24.61;87.86;101456.84;8316263;28;20069;-65
2022/07/09 14:27:35;;;;;;;16.95;12.55;;;;;;;24.57;81.81;101456.41;8309944;28;20065;-63
2022/07/09 14:31:35;;;;;;;26.15;16.40;;;;;;;24.36;85.66;101448.25;8316824;28;20068;-64
2022/07/09 14:35:35;;;;;;;16.60;11.48;;;;;;;24.54;82.96;101450.41;8317233;28;20033;-64
2022/07/09 14:39:36;;;;;;;12.73;9.70;;;;;;;25.01;81.88;101442.03;8316439;28;20259;-64
2022/07/09 14:43:40;;;;;;;9.50;6.15;;;;;;;24.86;78.83;101441.38;8320640;28;20056;-64
2022/07/09 14:47:40;;;;;;;9.32;5.20;;;;;;;24.63;77.03;101443.63;8321474;28;20116;-64
2022/07/09 14:51:40;;;;;;;4.70;3.90;;;;;;;24.49;74.86;101448.28;8311388;28;20498;-64
2022/07/09 14:55:41;;;;;;;7.73;3.23;;;;;;;24.68;76.87;101453.06;8310820;28;20068;-64
2022/07/09 14:59:41;;;;;;;3.10;1.92;;;;;;;24.69;71.90;101453.91;8309931;28;20053;-64
2022/07/09 15:03:47;;;;;;;8.05;1.80;;;;;;;24.56;69.75;101440.88;8309954;28;20490;-64
2022/07/09 15:07:48;;;;;;;2.95;1.70;;;;;;;24.34;71.17;101449.53;8309376;28;20044;-64
2022/07/09 15:11:48;;;;;;;7.10;1.40;;;;;;;24.23;71.16;101447.34;8320719;28;20116;-64
2022/07/09 15:15:48;;;;;;;8.47;1.33;;;;;;;24.26;71.24;101457.97;8319699;28;20121;-63
2022/07/09 15:19:49;;;;;;;9.13;1.55;;;;;;;24.20;70.44;101443.09;8319246;28;20703;-63
2022/07/09 15:23:49;;;;;;;5.00;1.40;;;;;;;24.25;69.30;101446.09;8316446;28;20037;-63
2022/07/09 15:27:50;;;;;;;2.58;1.30;;;;;;;24.26;69.32;101446.94;8311719;28;20276;-63
2022/07/09 15:31:50;;;;;;;3.63;1.60;;;;;;;24.46;66.58;101445.94;8316540;28;20043;-63
2022/07/09 15:35:51;;;;;;;6.22;1.40;;;;;;;24.46;67.08;101458.91;8319194;28;20041;-63
2022/07/09 15:39:52;;;;;;;3.30;1.17;;;;;;;24.38;65.77;101446.13;8319337;28;20103;-63
2022/07/09 15:43:52;;;;;;;3.45;1.00;;;;;;;24.44;66.50;101449.97;8319372;28;20037;-63
2022/07/09 15:47:53;;;;;;;4.75;1.15;;;;;;;24.44;66.28;101461.91;8324614;28;20128;-63
2022/07/09 15:51:54;;;;;;;1.75;1.00;;;;;;;24.34;63.85;101447.59;8325784;28;20042;-63
2022/07/09 15:55:54;;;;;;;2.85;1.00;;;;;;;24.30;63.71;101445.44;8326599;28;20047;-63
2022/07/09 15:59:54;;;;;;;2.60;0.88;;;;;;;24.21;63.53;101449.47;8326139;28;20490;-63
2022/07/09 16:03:55;;;;;;;2.47;1.00;;;;;;;24.07;64.73;101454.09;8326090;28;20594;-63
2022/07/09 16:07:55;;;;;;;4.40;1.30;;;;;;;23.98;64.31;101443.41;8326759;28;20296;-63
2022/07/09 16:12:59;;;;;;;6.47;1.55;;;;;;;24.09;64.72;101440.06;8326639;28;20498;-64
2022/07/09 16:16:16;;;;;;;2.00;0.80;;;;;;;23.99;63.74;101439.56;8325817;28;20069;-62
2022/07/09 16:20:17;;;;;;;1.63;0.90;;;;;;;23.93;63.68;101443.13;8324095;28;20503;-62
2022/07/09 16:24:17;;;;;;;1.17;0.80;;;;;;;24.06;64.10;101441.31;8326179;28;20109;-62
2022/07/09 16:28:17;;;;;;;1.77;0.90;;;;;;;24.18;63.32;101438.84;8325075;28;20041;-62
2022/07/09 16:32:18;;;;;;;2.88;1.02;;;;;;;24.16;62.02;101435.41;8322981;28;20033;-62
2022/07/09 16:36:19;;;;;;;3.60;1.20;;;;;;;24.19;64.87;101437.75;8323716;28;20127;-62
2022/07/09 16:40:39;;;;;;;4.03;1.15;;;;;;;24.13;60.93;101430.31;8324905;28;20310;-62
2022/07/09 16:44:40;;;;;;;2.47;0.98;;;;;;;24.05;60.92;101433.22;8285299;28;20060;-62
2022/07/09 16:48:48;;;;;;;2.50;0.93;;;;;;;24.01;60.12;101443.84;8314582;28;20041;-62
2022/07/09 16:52:48;;;;;;;3.20;0.90;;;;;;;24.17;60.54;101443.50;8357111;28;20118;-62
2022/07/09 16:56:48;;;;;;;3.78;1.10;;;;;;;24.11;59.19;101443.47;8356559;28;20060;-62
2022/07/09 17:00:49;;;;;;;4.45;1.50;;;;;;;24.09;59.39;101445.59;8355283;28;20091;-62
2022/07/09 17:04:50;;;;;;;3.25;1.38;;;;;;;24.02;60.26;101444.69;8356330;28;20044;-62
2022/07/09 17:08:50;;;;;;;9.60;5.80;;;;;;;23.94;59.90;101440.16;8337866;28;20106;-62
2022/07/09 17:12:51;;;;;;;4.43;0.95;;;;;;;23.89;60.08;101439.06;8352289;28;20051;-62
2022/07/09 17:16:51;;;;;;;4.00;0.82;;;;;;;23.75;60.18;101442.84;8341170;28;20044;-62
2022/07/09 17:20:52;;;;;;;2.45;1.52;;;;;;;23.65;60.05;101442.31;8339648;28;20044;-62
2022/07/09 17:24:52;;;;;;;2.75;1.50;;;;;;;23.54;59.97;101440.16;8341617;28;20047;-62
2022/07/09 17:28:53;;;;;;;3.00;1.50;;;;;;;23.56;60.25;101438.03;8349818;28;20041;-62
2022/07/09 17:32:56;;;;;;;7.28;2.45;;;;;;;23.57;60.42;101450.78;8341922;28;20124;-62
2022/07/09 17:36:56;;;;;;;6.88;1.70;;;;;;;23.60;60.68;101447.63;8339572;28;20068;-62
2022/07/09 17:40:57;;;;;;;7.77;1.20;;;;;;;23.51;60.38;101446.06;8349934;28;20489;-62
2022/07/09 17:44:57;;;;;;;3.53;0.80;;;;;;;23.42;58.10;101450.88;8355211;28;20299;-62
2022/07/09 17:48:58;;;;;;;4.20;1.27;;;;;;;23.28;59.57;101456.50;8347755;28;20072;-62
2022/07/09 17:52:58;;;;;;;4.87;0.97;;;;;;;23.20;59.54;101452.81;8355069;28;20052;-62
2022/07/09 17:56:58;;;;;;;2.38;1.17;;;;;;;23.08;60.17;101456.31;8354669;28;20655;-62
2022/07/09 18:00:59;;;;;;;3.23;0.80;;;;;;;23.03;61.59;101458.81;8353642;28;20457;-62
2022/07/09 18:04:59;;;;;;;6.10;1.03;;;;;;;22.92;62.37;101451.94;8346082;28;20288;-62
2022/07/09 18:08:59;;;;;;;4.07;0.90;;;;;;;22.82;61.81;101451.41;8350263;28;20271;-62
2022/07/09 18:13:01;;;;;;;3.28;0.90;;;;;;;22.80;60.17;101453.50;8352548;28;20624;-62
2022/07/09 18:17:02;;;;;;;6.05;0.98;;;;;;;22.75;59.39;101447.72;8346419;28;20845;-62
2022/07/09 18:21:05;;;;;;;2.75;0.85;;;;;;;22.65;59.17;101451.84;8353168;28;20538;-62
2022/07/09 18:25:06;;;;;;;3.40;0.68;;;;;;;22.60;59.13;101452.44;8346081;28;20048;-62
2022/07/09 18:29:07;;;;;;;1.33;0.60;;;;;;;22.54;58.77;101455.97;8352671;28;20052;-63
2022/07/09 18:33:07;;;;;;;5.22;1.15;;;;;;;22.50;59.54;101457.41;8352873;28;20601;-62